createdAt,value
2018-03-24T00:00:19.886Z,99.90
2018-03-24T00:01:25.189Z,99.90
2018-03-24T00:02:31.167Z,99.90
2018-03-24T00:03:36.336Z,99.90
2018-03-24T00:04:41.842Z,99.90
2018-03-24T00:05:47.224Z,99.90
2018-03-24T00:06:53.280Z,99.90
2018-03-24T00:07:59.424Z,99.90
2018-03-24T00:09:05.740Z,99.90
2018-03-24T00:10:11.355Z,99.90
2018-03-24T00:11:16.974Z,99.90
2018-03-24T00:12:22.382Z,99.90
2018-03-24T00:13:29.924Z,99.90
2018-03-24T00:14:35.646Z,99.90
2018-03-24T00:15:41.017Z,99.90
2018-03-24T00:16:46.276Z,99.90
2018-03-24T00:17:52.319Z,99.90
2018-03-24T00:18:57.318Z,99.90
2018-03-24T00:20:03.669Z,99.90
2018-03-24T00:21:09.286Z,99.90
2018-03-24T00:22:18.294Z,99.70
2018-03-24T00:23:23.662Z,99.60
2018-03-24T00:24:29.708Z,99.40
2018-03-24T00:25:34.881Z,99.60
2018-03-24T00:26:40.096Z,99.60
2018-03-24T00:27:46.242Z,99.90
2018-03-24T00:28:52.517Z,99.90
2018-03-24T00:29:58.172Z,99.90
2018-03-24T00:31:04.285Z,99.90
2018-03-24T00:32:10.694Z,99.90
2018-03-24T00:33:16.130Z,99.90
2018-03-24T00:34:22.118Z,99.90
2018-03-24T00:35:29.766Z,99.90
2018-03-24T00:36:35.388Z,99.90
2018-03-24T00:37:40.766Z,99.90
2018-03-24T00:38:46.048Z,99.90
2018-03-24T00:39:51.378Z,99.90
2018-03-24T00:40:56.876Z,99.90
2018-03-24T00:43:19.209Z,99.90
2018-03-24T00:44:25.569Z,99.90
2018-03-24T00:45:32.091Z,99.90
2018-03-24T00:46:37.473Z,99.90
2018-03-24T00:47:43.985Z,99.90
2018-03-24T00:48:49.761Z,99.90
2018-03-24T00:49:55.417Z,99.90
2018-03-24T00:51:00.686Z,99.90
2018-03-24T00:52:06.087Z,99.90
2018-03-24T00:53:11.580Z,99.90
2018-03-24T00:54:17.777Z,99.90
2018-03-24T00:55:23.383Z,99.90
2018-03-24T00:56:29.697Z,99.90
2018-03-24T00:57:35.343Z,99.90
2018-03-24T00:58:40.855Z,99.90
2018-03-24T00:59:46.120Z,99.90
2018-03-24T01:00:56.210Z,99.90
2018-03-24T01:02:01.608Z,99.90
2018-03-24T01:03:07.913Z,99.90
2018-03-24T01:04:13.291Z,99.90
2018-03-24T01:05:19.485Z,99.90
2018-03-24T01:06:24.941Z,99.90
2018-03-24T01:07:31.128Z,99.90
2018-03-24T01:08:37.309Z,99.90
2018-03-24T01:09:42.713Z,99.90
2018-03-24T01:10:49.016Z,99.90
2018-03-24T01:11:54.634Z,99.90
2018-03-24T01:12:59.982Z,99.90
2018-03-24T01:14:05.504Z,99.90
2018-03-24T01:15:10.742Z,99.90
2018-03-24T01:16:16.109Z,99.90
2018-03-24T01:17:21.837Z,99.90
2018-03-24T01:18:27.909Z,99.90
2018-03-24T01:19:33.541Z,99.90
2018-03-24T01:20:39.272Z,99.90
2018-03-24T01:21:45.543Z,99.90
2018-03-24T01:22:51.768Z,99.90
2018-03-24T01:23:56.891Z,99.90
2018-03-24T01:25:02.172Z,99.90
2018-03-24T01:26:07.549Z,99.90
2018-03-24T01:27:12.853Z,99.90
2018-03-24T01:28:18.238Z,99.90
2018-03-24T01:29:23.602Z,99.90
2018-03-24T01:30:29.561Z,99.90
2018-03-24T01:31:34.742Z,99.90
2018-03-24T01:32:40.213Z,99.90
2018-03-24T01:33:45.455Z,99.90
2018-03-24T01:34:50.835Z,99.90
2018-03-24T01:35:56.127Z,99.90
2018-03-24T01:37:01.260Z,99.90
2018-03-24T01:38:06.631Z,99.90
2018-03-24T01:39:11.841Z,99.90
2018-03-24T01:40:17.208Z,99.90
2018-03-24T01:41:23.427Z,99.90
2018-03-24T01:42:28.894Z,99.90
2018-03-24T01:43:34.726Z,99.90
2018-03-24T01:44:40.124Z,99.90
2018-03-24T01:45:45.286Z,99.90
2018-03-24T01:46:50.475Z,99.90
2018-03-24T01:47:56.162Z,99.90
2018-03-24T01:49:01.872Z,99.90
2018-03-24T01:50:06.915Z,99.90
2018-03-24T01:51:12.105Z,99.90
2018-03-24T01:52:16.973Z,99.90
2018-03-24T01:53:23.942Z,99.90
2018-03-24T01:54:30.456Z,99.90
2018-03-24T01:55:35.166Z,99.90
2018-03-24T01:56:40.471Z,99.90
2018-03-24T01:57:46.103Z,99.90
2018-03-24T01:58:51.099Z,99.90
2018-03-24T01:59:56.169Z,99.90
2018-03-24T02:01:01.690Z,99.90
2018-03-24T02:02:06.756Z,99.90
2018-03-24T02:03:11.639Z,99.90
2018-03-24T02:04:16.574Z,99.90
2018-03-24T02:05:21.804Z,99.90
2018-03-24T02:06:26.876Z,99.90
2018-03-24T02:07:32.654Z,99.90
2018-03-24T02:08:38.316Z,99.90
2018-03-24T02:09:43.378Z,99.90
2018-03-24T02:10:48.658Z,99.90
2018-03-24T02:11:53.923Z,99.90
2018-03-24T02:12:59.129Z,99.90
2018-03-24T02:14:03.959Z,99.90
2018-03-24T02:15:08.592Z,99.90
2018-03-24T02:16:13.243Z,99.90
2018-03-24T02:17:18.669Z,99.90
2018-03-24T02:18:23.706Z,99.90
2018-03-24T02:19:30.022Z,99.90
2018-03-24T02:20:35.098Z,99.90
2018-03-24T02:21:40.103Z,99.90
2018-03-24T02:22:45.634Z,99.90
2018-03-24T02:23:51.390Z,99.90
2018-03-24T02:24:56.524Z,99.90
2018-03-24T02:26:02.615Z,99.90
2018-03-24T02:27:07.429Z,99.90
2018-03-24T02:28:12.052Z,99.90
2018-03-24T02:29:16.779Z,99.90
2018-03-24T02:30:22.345Z,99.90
2018-03-24T02:31:27.586Z,99.90
2018-03-24T02:32:32.057Z,99.90
2018-03-24T02:33:38.301Z,99.90
2018-03-24T02:34:43.246Z,99.90
2018-03-24T02:35:48.772Z,99.90
2018-03-24T02:36:54.271Z,99.90
2018-03-24T02:37:59.836Z,99.90
2018-03-24T02:39:05.048Z,99.90
2018-03-24T02:40:10.036Z,99.90
2018-03-24T02:41:14.829Z,99.90
2018-03-24T02:42:19.530Z,99.90
2018-03-24T02:43:25.122Z,99.90
2018-03-24T02:44:31.260Z,99.90
2018-03-24T02:45:37.191Z,99.90
2018-03-24T02:46:42.763Z,99.90
2018-03-24T02:47:50.207Z,99.90
2018-03-24T02:48:55.770Z,99.90
2018-03-24T02:50:04.194Z,99.90
2018-03-24T02:51:11.865Z,99.90
2018-03-24T02:52:19.177Z,99.90
2018-03-24T02:53:25.951Z,99.90
2018-03-24T02:54:35.286Z,99.90
2018-03-24T02:55:41.513Z,99.90
2018-03-24T02:56:47.425Z,99.90
2018-03-24T02:57:52.136Z,99.90
2018-03-24T02:58:56.777Z,99.90
2018-03-24T03:00:01.286Z,99.90
2018-03-24T03:01:05.929Z,99.90
2018-03-24T03:02:12.228Z,99.90
2018-03-24T03:03:16.969Z,99.90
2018-03-24T03:04:21.575Z,99.90
2018-03-24T03:05:27.005Z,99.90
2018-03-24T03:06:31.803Z,99.90
2018-03-24T03:07:36.422Z,99.90
2018-03-24T03:08:41.155Z,99.90
2018-03-24T03:09:45.838Z,99.90
2018-03-24T03:10:50.270Z,99.90
2018-03-24T03:11:54.832Z,99.90
2018-03-24T03:13:00.909Z,99.90
2018-03-24T03:14:05.606Z,99.90
2018-03-24T03:15:10.758Z,99.90
2018-03-24T03:16:15.324Z,99.90
2018-03-24T03:17:19.868Z,99.90
2018-03-24T03:18:24.857Z,99.90
2018-03-24T03:19:30.045Z,99.90
2018-03-24T03:20:34.879Z,99.90
2018-03-24T03:21:45.293Z,99.90
2018-03-24T03:22:49.961Z,99.90
2018-03-24T03:23:54.558Z,99.90
2018-03-24T03:25:00.327Z,99.90
2018-03-24T03:26:04.946Z,99.90
2018-03-24T03:27:09.465Z,99.90
2018-03-24T03:28:14.387Z,99.90
2018-03-24T03:29:19.986Z,99.90
2018-03-24T03:30:24.506Z,99.90
2018-03-24T03:31:30.461Z,99.90
2018-03-24T03:32:34.978Z,99.90
2018-03-24T03:33:39.711Z,99.90
2018-03-24T03:34:45.425Z,99.90
2018-03-24T03:35:49.787Z,99.90
2018-03-24T03:36:54.273Z,99.90
2018-03-24T03:37:59.258Z,99.90
2018-03-24T03:39:03.854Z,99.90
2018-03-24T03:40:08.214Z,99.90
2018-03-24T03:41:13.390Z,99.90
2018-03-24T03:42:17.968Z,99.90
2018-03-24T03:43:22.376Z,99.90
2018-03-24T03:44:28.191Z,99.90
2018-03-24T03:45:32.778Z,99.90
2018-03-24T03:46:37.195Z,99.90
2018-03-24T03:47:41.682Z,99.90
2018-03-24T03:48:46.297Z,99.90
2018-03-24T03:49:51.334Z,99.90
2018-03-24T03:50:55.955Z,99.90
2018-03-24T03:52:00.502Z,99.90
2018-03-24T03:53:05.777Z,99.90
2018-03-24T03:54:10.299Z,99.90
2018-03-24T03:55:14.840Z,99.90
2018-03-24T03:56:19.363Z,99.90
2018-03-24T03:57:23.894Z,99.90
2018-03-24T03:58:29.656Z,99.90
2018-03-24T03:59:34.060Z,99.90
2018-03-24T04:00:39.471Z,99.90
2018-03-24T04:01:44.042Z,99.90
2018-03-24T04:02:48.533Z,99.90
2018-03-24T04:03:53.268Z,99.90
2018-03-24T04:04:58.281Z,99.90
2018-03-24T04:06:02.935Z,99.90
2018-03-24T04:07:07.594Z,99.90
2018-03-24T04:08:12.189Z,99.90
2018-03-24T04:09:16.681Z,99.90
2018-03-24T04:10:21.903Z,99.90
2018-03-24T04:11:26.947Z,99.90
2018-03-24T04:12:31.435Z,99.90
2018-03-24T04:13:35.892Z,99.90
2018-03-24T04:14:40.577Z,99.90
2018-03-24T04:15:45.924Z,99.90
2018-03-24T04:16:50.322Z,99.90
2018-03-24T04:17:56.189Z,99.90
2018-03-24T04:19:00.836Z,99.90
2018-03-24T04:20:05.468Z,99.90
2018-03-24T04:21:10.139Z,99.90
2018-03-24T04:22:14.563Z,99.90
2018-03-24T04:23:18.887Z,99.90
2018-03-24T04:24:23.176Z,99.90
2018-03-24T04:25:27.548Z,99.90
2018-03-24T04:26:32.822Z,99.90
2018-03-24T04:27:37.211Z,99.90
2018-03-24T04:28:41.655Z,99.90
2018-03-24T04:29:46.100Z,99.90
2018-03-24T04:30:51.254Z,99.90
2018-03-24T04:33:07.358Z,99.90
2018-03-24T04:34:11.701Z,99.90
2018-03-24T04:35:16.268Z,99.90
2018-03-24T04:36:20.823Z,99.90
2018-03-24T04:37:25.305Z,99.90
2018-03-24T04:38:29.688Z,99.90
2018-03-24T04:39:34.004Z,99.90
2018-03-24T04:40:39.380Z,99.90
2018-03-24T04:41:44.800Z,99.90
2018-03-24T04:42:49.201Z,99.90
2018-03-24T04:43:53.915Z,99.90
2018-03-24T04:44:58.520Z,99.90
2018-03-24T04:46:03.230Z,99.90
2018-03-24T04:47:07.792Z,99.90
2018-03-24T04:48:12.485Z,99.90
2018-03-24T04:49:16.998Z,99.90
2018-03-24T04:50:22.703Z,99.90
2018-03-24T04:51:27.085Z,99.90
2018-03-24T04:52:32.249Z,99.90
2018-03-24T04:53:37.620Z,99.90
2018-03-24T04:54:42.325Z,99.90
2018-03-24T04:55:46.629Z,99.90
2018-03-24T04:56:51.146Z,99.90
2018-03-24T04:57:55.662Z,99.90
2018-03-24T04:59:00.099Z,99.90
2018-03-24T05:00:06.283Z,99.90
2018-03-24T05:01:10.651Z,99.90
2018-03-24T05:02:15.707Z,99.90
2018-03-24T05:03:20.313Z,99.90
2018-03-24T05:04:24.725Z,99.90
2018-03-24T05:05:29.853Z,99.90
2018-03-24T05:06:34.376Z,99.90
2018-03-24T05:07:39.103Z,99.90
2018-03-24T05:08:43.548Z,99.90
2018-03-24T05:09:48.073Z,99.90
2018-03-24T05:10:52.650Z,99.90
2018-03-24T05:12:01.283Z,99.90
2018-03-24T05:13:05.960Z,99.90
2018-03-24T05:14:10.439Z,99.90
2018-03-24T05:15:16.175Z,99.90
2018-03-24T05:16:21.259Z,99.90
2018-03-24T05:17:26.403Z,99.90
2018-03-24T05:18:32.148Z,99.90
2018-03-24T05:19:37.401Z,99.90
2018-03-24T05:20:42.882Z,99.90
2018-03-24T05:21:47.842Z,99.90
2018-03-24T05:22:52.431Z,99.90
2018-03-24T05:23:56.862Z,99.90
2018-03-24T05:25:01.671Z,99.90
2018-03-24T05:26:06.647Z,99.90
2018-03-24T05:27:11.198Z,99.90
2018-03-24T05:28:15.774Z,99.90
2018-03-24T05:29:20.624Z,99.90
2018-03-24T05:30:25.561Z,99.90
2018-03-24T05:31:30.163Z,99.90
2018-03-24T05:32:35.174Z,99.90
2018-03-24T05:33:39.934Z,99.90
2018-03-24T05:34:45.441Z,99.90
2018-03-24T05:35:49.974Z,99.90
2018-03-24T05:36:54.754Z,99.90
2018-03-24T05:37:59.571Z,99.90
2018-03-24T05:39:04.538Z,99.90
2018-03-24T05:40:09.848Z,99.90
2018-03-24T05:41:14.740Z,99.90
2018-03-24T05:42:19.572Z,99.90
2018-03-24T05:43:24.456Z,99.90
2018-03-24T05:44:29.086Z,99.90
2018-03-24T05:45:33.685Z,99.90
2018-03-24T05:46:38.340Z,99.90
2018-03-24T05:47:51.173Z,99.90
2018-03-24T05:48:55.677Z,99.90
2018-03-24T05:50:00.831Z,99.90
2018-03-24T05:51:06.615Z,99.90
2018-03-24T05:52:11.064Z,99.90
2018-03-24T05:53:15.717Z,99.90
2018-03-24T05:54:20.205Z,99.90
2018-03-24T05:55:25.582Z,99.90
2018-03-24T05:56:30.145Z,99.90
2018-03-24T05:57:34.680Z,99.90
2018-03-24T05:58:39.486Z,99.90
2018-03-24T05:59:44.784Z,99.90
2018-03-24T06:00:50.230Z,99.90
2018-03-24T06:01:55.254Z,99.90
2018-03-24T06:03:00.065Z,99.90
2018-03-24T06:04:05.394Z,99.90
2018-03-24T06:05:10.776Z,99.90
2018-03-24T06:06:15.699Z,99.90
2018-03-24T06:07:20.885Z,99.90
2018-03-24T06:08:25.829Z,99.90
2018-03-24T06:09:30.773Z,99.90
2018-03-24T06:10:36.455Z,99.90
2018-03-24T06:11:41.323Z,99.90
2018-03-24T06:12:46.521Z,99.90
2018-03-24T06:13:51.452Z,99.90
2018-03-24T06:14:57.016Z,99.90
2018-03-24T06:16:01.590Z,99.90
2018-03-24T06:17:06.706Z,99.90
2018-03-24T06:18:11.636Z,99.90
2018-03-24T06:19:16.764Z,99.90
2018-03-24T06:20:22.337Z,99.90
2018-03-24T06:21:27.177Z,99.90
2018-03-24T06:22:33.175Z,99.90
2018-03-24T06:23:38.208Z,99.90
2018-03-24T06:24:44.037Z,99.90
2018-03-24T06:25:50.227Z,99.90
2018-03-24T06:26:56.102Z,99.90
2018-03-24T06:28:01.760Z,99.90
2018-03-24T06:29:06.919Z,99.90
2018-03-24T06:30:12.377Z,99.90
2018-03-24T06:31:18.185Z,99.90
2018-03-24T06:32:23.786Z,99.90
2018-03-24T06:33:29.419Z,99.90
2018-03-24T06:34:35.065Z,99.90
2018-03-24T06:35:40.325Z,99.90
2018-03-24T06:36:46.783Z,99.90
2018-03-24T06:37:51.747Z,99.90
2018-03-24T06:38:57.062Z,99.90
2018-03-24T06:40:03.808Z,99.90
2018-03-24T06:41:08.887Z,99.90
2018-03-24T06:42:13.998Z,99.90
2018-03-24T06:43:19.129Z,99.90
2018-03-24T06:44:24.499Z,99.90
2018-03-24T06:45:32.890Z,99.90
2018-03-24T06:46:38.034Z,99.90
2018-03-24T06:47:44.335Z,99.90
2018-03-24T06:48:50.307Z,99.90
2018-03-24T06:49:56.438Z,99.90
2018-03-24T06:51:02.015Z,99.90
2018-03-24T06:52:07.261Z,99.90
2018-03-24T06:53:18.709Z,99.90
2018-03-24T06:54:25.061Z,99.90
2018-03-24T06:55:30.317Z,99.90
2018-03-24T06:56:36.908Z,99.90
2018-03-24T06:57:43.119Z,99.90
2018-03-24T06:58:50.546Z,99.90
2018-03-24T06:59:57.100Z,99.90
2018-03-24T07:01:02.481Z,99.90
2018-03-24T07:02:09.359Z,99.90
2018-03-24T07:03:16.265Z,99.90
2018-03-24T07:04:21.528Z,99.90
2018-03-24T07:05:28.319Z,99.90
2018-03-24T07:06:33.690Z,99.90
2018-03-24T07:07:40.068Z,99.90
2018-03-24T07:08:45.921Z,99.90
2018-03-24T07:09:51.572Z,99.90
2018-03-24T07:10:57.327Z,99.90
2018-03-24T07:12:03.384Z,99.90
2018-03-24T07:13:09.050Z,99.90
2018-03-24T07:14:15.219Z,99.90
2018-03-24T07:15:22.759Z,99.90
2018-03-24T07:16:29.191Z,99.90
2018-03-24T07:17:37.226Z,99.90
2018-03-24T07:18:43.973Z,99.90
2018-03-24T07:19:50.331Z,99.90
2018-03-24T07:20:55.823Z,99.90
2018-03-24T07:22:01.763Z,99.90
2018-03-24T07:23:07.481Z,99.90
2018-03-24T07:24:13.150Z,99.90
2018-03-24T07:25:19.643Z,99.90
2018-03-24T07:26:26.348Z,99.90
2018-03-24T07:27:32.159Z,99.90
2018-03-24T07:28:44.100Z,99.90
2018-03-24T07:29:52.032Z,99.90
2018-03-24T07:30:58.168Z,99.90
2018-03-24T07:32:06.105Z,99.90
2018-03-24T07:33:12.387Z,99.90
2018-03-24T07:34:18.388Z,99.90
2018-03-24T07:35:26.592Z,99.90
2018-03-24T07:36:36.895Z,99.90
2018-03-24T07:37:43.119Z,99.90
2018-03-24T07:38:49.263Z,99.90
2018-03-24T07:39:54.644Z,99.90
2018-03-24T07:41:02.006Z,99.90
2018-03-24T07:42:09.334Z,99.90
2018-03-24T07:43:16.233Z,99.90
2018-03-24T07:44:22.527Z,99.90
2018-03-24T07:45:29.384Z,99.90
2018-03-24T07:46:35.570Z,99.90
2018-03-24T07:47:40.715Z,99.90
2018-03-24T07:48:46.856Z,99.90
2018-03-24T07:49:52.314Z,99.90
2018-03-24T07:50:57.464Z,99.90
2018-03-24T07:52:03.869Z,99.90
2018-03-24T07:53:09.319Z,99.90
2018-03-24T07:54:14.467Z,99.90
2018-03-24T07:55:19.487Z,99.90
2018-03-24T07:56:24.880Z,99.90
2018-03-24T07:57:30.098Z,99.90
2018-03-24T07:58:35.363Z,99.90
2018-03-24T07:59:41.191Z,99.90
2018-03-24T08:00:46.190Z,99.90
2018-03-24T08:01:52.364Z,99.90
2018-03-24T08:02:57.902Z,99.90
2018-03-24T08:04:03.416Z,99.90
2018-03-24T08:05:08.799Z,99.90
2018-03-24T08:06:13.969Z,99.90
2018-03-24T08:07:19.113Z,99.90
2018-03-24T08:08:24.651Z,99.90
2018-03-24T08:09:29.995Z,99.90
2018-03-24T08:10:35.364Z,99.80
2018-03-24T08:11:40.689Z,99.50
2018-03-24T08:12:46.081Z,99.70
2018-03-24T08:13:52.073Z,99.60
2018-03-24T08:14:58.334Z,99.40
2018-03-24T08:16:05.120Z,99.10
2018-03-24T08:17:10.704Z,99.10
2018-03-24T08:18:16.541Z,98.60
2018-03-24T08:19:22.340Z,98.50
2018-03-24T08:20:28.858Z,98.30
2018-03-24T08:21:34.403Z,98.30
2018-03-24T08:22:40.570Z,98.20
2018-03-24T08:23:46.377Z,98.20
2018-03-24T08:24:51.633Z,98.00
2018-03-24T08:25:57.706Z,97.30
2018-03-24T08:27:02.877Z,97.30
2018-03-24T08:28:08.602Z,97.60
2018-03-24T08:29:14.844Z,97.60
2018-03-24T08:30:20.362Z,97.00
2018-03-24T08:31:26.696Z,96.90
2018-03-24T08:32:32.618Z,96.70
2018-03-24T08:33:37.992Z,96.70
2018-03-24T08:34:43.297Z,95.60
2018-03-24T08:35:49.292Z,95.50
2018-03-24T08:36:54.534Z,95.50
2018-03-24T08:37:59.891Z,95.10
2018-03-24T08:39:05.324Z,95.10
2018-03-24T08:40:10.614Z,95.20
2018-03-24T08:41:15.984Z,95.10
2018-03-24T08:42:21.148Z,95.40
2018-03-24T08:43:26.621Z,95.50
2018-03-24T08:44:31.846Z,95.30
2018-03-24T08:45:37.334Z,95.10
2018-03-24T08:46:42.951Z,95.00
2018-03-24T08:47:48.102Z,95.00
2018-03-24T08:48:54.143Z,95.10
2018-03-24T08:50:00.430Z,95.50
2018-03-24T08:51:05.782Z,95.50
2018-03-24T08:52:11.318Z,96.20
2018-03-24T08:53:17.197Z,96.10
2018-03-24T08:54:22.669Z,95.20
2018-03-24T08:55:28.108Z,94.70
2018-03-24T08:56:33.506Z,94.60
2018-03-24T08:57:41.070Z,94.60
2018-03-24T08:58:46.362Z,94.50
2018-03-24T08:59:52.398Z,94.70
2018-03-24T09:00:57.829Z,94.70
2018-03-24T09:02:03.320Z,94.50
2018-03-24T09:03:08.592Z,93.90
2018-03-24T09:04:13.944Z,93.70
2018-03-24T09:05:19.090Z,93.50
2018-03-24T09:06:24.355Z,93.70
2018-03-24T09:07:31.075Z,94.40
2018-03-24T09:08:36.210Z,94.40
2018-03-24T09:09:42.173Z,94.50
2018-03-24T09:10:49.969Z,94.50
2018-03-24T09:11:57.768Z,94.30
2018-03-24T09:13:05.642Z,94.00
2018-03-24T09:14:12.934Z,94.20
2018-03-24T09:15:19.140Z,94.20
2018-03-24T09:16:24.376Z,94.20
2018-03-24T09:17:29.490Z,94.60
2018-03-24T09:18:35.304Z,94.20
2018-03-24T09:19:40.430Z,94.30
2018-03-24T09:20:45.745Z,93.30
2018-03-24T09:21:51.663Z,93.30
2018-03-24T09:22:56.680Z,93.30
2018-03-24T09:24:01.967Z,93.30
2018-03-24T09:25:07.159Z,93.20
2018-03-24T09:26:13.652Z,93.30
2018-03-24T09:27:18.824Z,93.30
2018-03-24T09:28:24.923Z,93.10
2018-03-24T09:29:31.037Z,93.00
2018-03-24T09:30:36.274Z,93.10
2018-03-24T09:31:43.438Z,92.30
2018-03-24T09:32:48.630Z,92.20
2018-03-24T09:33:53.785Z,92.50
2018-03-24T09:34:58.964Z,92.90
2018-03-24T09:36:04.394Z,92.40
2018-03-24T09:37:11.437Z,91.80
2018-03-24T09:38:17.688Z,91.20
2018-03-24T09:39:23.952Z,90.80
2018-03-24T09:40:28.987Z,90.80
2018-03-24T09:41:34.561Z,90.40
2018-03-24T09:42:39.739Z,90.50
2018-03-24T09:43:46.076Z,90.30
2018-03-24T09:44:52.153Z,90.40
2018-03-24T09:45:57.478Z,90.40
2018-03-24T09:47:04.120Z,90.60
2018-03-24T09:48:10.968Z,90.80
2018-03-24T09:49:16.144Z,90.80
2018-03-24T09:50:21.494Z,90.50
2018-03-24T09:51:27.297Z,90.40
2018-03-24T09:52:32.562Z,90.00
2018-03-24T09:53:37.965Z,89.80
2018-03-24T09:54:44.199Z,88.80
2018-03-24T09:55:51.402Z,87.70
2018-03-24T09:56:58.026Z,87.70
2018-03-24T09:58:05.941Z,87.00
2018-03-24T09:59:12.932Z,86.30
2018-03-24T10:00:19.162Z,86.20
2018-03-24T10:01:26.389Z,84.50
2018-03-24T10:02:34.336Z,84.60
2018-03-24T10:03:41.491Z,84.90
2018-03-24T10:04:49.680Z,85.00
2018-03-24T10:05:57.848Z,85.10
2018-03-24T10:07:04.766Z,85.10
2018-03-24T10:08:11.406Z,83.80
2018-03-24T10:09:17.384Z,83.80
2018-03-24T10:10:23.807Z,82.00
2018-03-24T10:11:29.690Z,82.60
2018-03-24T10:12:38.448Z,81.60
2018-03-24T10:13:44.837Z,80.70
2018-03-24T10:14:51.926Z,77.90
2018-03-24T10:15:59.407Z,77.90
2018-03-24T10:17:05.503Z,78.40
2018-03-24T10:18:11.005Z,77.90
2018-03-24T10:19:18.131Z,72.90
2018-03-24T10:20:26.154Z,72.80
2018-03-24T10:21:33.295Z,72.80
2018-03-24T10:22:48.383Z,74.70
2018-03-24T10:23:57.007Z,74.60
2018-03-24T10:25:06.432Z,73.90
2018-03-24T10:26:12.485Z,72.30
2018-03-24T10:27:17.661Z,71.00
2018-03-24T10:28:23.202Z,72.20
2018-03-24T10:29:29.461Z,69.80
2018-03-24T10:30:34.735Z,69.80
2018-03-24T10:31:40.054Z,70.50
2018-03-24T10:32:45.827Z,71.50
2018-03-24T10:33:54.916Z,71.40
2018-03-24T10:35:04.180Z,71.50
2018-03-24T10:36:10.058Z,71.20
2018-03-24T10:37:15.822Z,72.10
2018-03-24T10:38:21.073Z,72.00
2018-03-24T10:39:27.884Z,70.50
2018-03-24T10:40:35.468Z,69.60
2018-03-24T10:41:42.978Z,69.70
2018-03-24T10:42:54.761Z,69.50
2018-03-24T10:44:02.182Z,68.20
2018-03-24T10:45:08.065Z,67.60
2018-03-24T10:46:17.089Z,63.60
2018-03-24T10:47:24.810Z,64.40
2018-03-24T10:48:30.387Z,64.50
2018-03-24T10:49:35.297Z,66.60
2018-03-24T10:50:41.567Z,68.90
2018-03-24T10:51:48.253Z,66.50
2018-03-24T10:52:56.447Z,63.30
2018-03-24T10:55:25.174Z,62.80
2018-03-24T10:56:31.575Z,62.90
2018-03-24T10:57:36.800Z,60.90
2018-03-24T10:58:42.105Z,59.70
2018-03-24T10:59:48.105Z,59.30
2018-03-24T11:00:59.209Z,57.90
2018-03-24T11:02:04.708Z,56.60
2018-03-24T11:03:09.828Z,57.30
2018-03-24T11:04:15.100Z,56.80
2018-03-24T11:05:20.344Z,56.20
2018-03-24T11:06:26.005Z,57.10
2018-03-24T11:07:32.859Z,53.60
2018-03-24T11:08:38.969Z,53.60
2018-03-24T11:09:44.545Z,54.40
2018-03-24T11:10:49.696Z,55.50
2018-03-24T11:11:55.379Z,54.30
2018-03-24T11:13:00.253Z,54.30
2018-03-24T11:14:06.326Z,51.80
2018-03-24T11:15:11.473Z,51.60
2018-03-24T11:16:16.796Z,51.50
2018-03-24T11:17:23.493Z,50.10
2018-03-24T11:18:28.558Z,50.60
2018-03-24T11:19:34.343Z,51.90
2018-03-24T11:20:39.475Z,51.80
2018-03-24T11:21:44.671Z,50.00
2018-03-24T11:22:50.208Z,49.70
2018-03-24T11:23:55.495Z,50.60
2018-03-24T11:25:01.218Z,49.00
2018-03-24T11:26:06.713Z,49.00
2018-03-24T11:27:11.904Z,48.70
2018-03-24T11:28:18.818Z,46.20
2018-03-24T11:29:24.125Z,46.20
2018-03-24T11:30:29.141Z,47.60
2018-03-24T11:31:34.346Z,48.60
2018-03-24T11:32:39.517Z,48.60
2018-03-24T11:33:45.462Z,46.10
2018-03-24T11:34:50.303Z,47.50
2018-03-24T11:35:55.248Z,47.90
2018-03-24T11:37:01.421Z,47.70
2018-03-24T11:38:07.023Z,48.90
2018-03-24T11:39:12.107Z,48.60
2018-03-24T11:40:17.135Z,48.40
2018-03-24T11:41:23.601Z,49.30
2018-03-24T11:42:30.142Z,50.30
2018-03-24T11:43:35.226Z,51.10
2018-03-24T11:44:40.365Z,51.80
2018-03-24T11:45:45.512Z,49.70
2018-03-24T11:46:51.308Z,49.00
2018-03-24T11:47:56.362Z,49.00
2018-03-24T11:49:01.509Z,48.20
2018-03-24T11:50:07.542Z,49.60
2018-03-24T11:51:13.550Z,50.30
2018-03-24T11:52:18.801Z,50.30
2018-03-24T11:53:32.553Z,50.30
2018-03-24T11:54:45.188Z,48.90
2018-03-24T11:55:58.628Z,48.80
2018-03-24T11:57:07.359Z,44.60
2018-03-24T11:58:12.516Z,44.40
2018-03-24T11:59:18.476Z,42.80
2018-03-24T12:00:23.571Z,42.70
2018-03-24T12:01:28.749Z,43.50
2018-03-24T12:02:34.123Z,45.20
2018-03-24T12:03:39.369Z,45.40
2018-03-24T12:04:46.148Z,42.90
2018-03-24T12:05:51.091Z,42.10
2018-03-24T12:06:56.769Z,40.10
2018-03-24T12:08:02.117Z,42.10
2018-03-24T12:09:08.293Z,42.20
2018-03-24T12:10:13.341Z,44.70
2018-03-24T12:11:20.373Z,44.30
2018-03-24T12:12:25.577Z,42.90
2018-03-24T12:13:33.574Z,41.90
2018-03-24T12:14:39.435Z,44.00
2018-03-24T12:15:45.857Z,44.00
2018-03-24T12:16:51.302Z,43.20
2018-03-24T12:17:56.370Z,46.50
2018-03-24T12:19:03.798Z,44.40
2018-03-24T12:20:08.967Z,42.80
2018-03-24T12:21:16.512Z,46.10
2018-03-24T12:22:21.484Z,46.10
2018-03-24T12:23:27.849Z,45.00
2018-03-24T12:24:33.329Z,44.40
2018-03-24T12:25:39.147Z,44.90
2018-03-24T12:26:43.966Z,44.90
2018-03-24T12:27:49.241Z,44.00
2018-03-24T12:28:54.921Z,47.00
2018-03-24T12:30:00.892Z,47.00
2018-03-24T12:31:05.900Z,46.70
2018-03-24T12:32:11.354Z,48.00
2018-03-24T12:33:16.498Z,48.70
2018-03-24T12:34:21.649Z,50.50
2018-03-24T12:35:27.875Z,44.20
2018-03-24T12:36:33.311Z,44.20
2018-03-24T12:37:38.294Z,43.70
2018-03-24T12:38:43.572Z,46.10
2018-03-24T12:39:50.536Z,45.30
2018-03-24T12:40:56.040Z,45.30
2018-03-24T12:42:02.039Z,42.70
2018-03-24T12:43:07.530Z,42.70
2018-03-24T12:44:12.964Z,44.60
2018-03-24T12:45:18.701Z,43.70
2018-03-24T12:46:23.996Z,43.10
2018-03-24T12:47:29.767Z,43.60
2018-03-24T12:48:35.672Z,44.00
2018-03-24T12:49:41.206Z,44.20
2018-03-24T12:50:46.138Z,45.00
2018-03-24T12:51:51.130Z,46.20
2018-03-24T12:52:56.997Z,49.30
2018-03-24T12:54:02.077Z,49.20
2018-03-24T12:55:08.043Z,49.10
2018-03-24T12:56:14.755Z,51.80
2018-03-24T12:57:20.241Z,51.30
2018-03-24T12:58:27.602Z,52.40
2018-03-24T12:59:32.610Z,52.00
2018-03-24T13:00:38.622Z,45.70
2018-03-24T13:01:44.020Z,45.80
2018-03-24T13:02:49.507Z,46.10
2018-03-24T13:03:55.234Z,46.70
2018-03-24T13:05:00.321Z,46.70
2018-03-24T13:06:08.369Z,44.70
2018-03-24T13:07:13.369Z,42.40
2018-03-24T13:08:18.322Z,42.30
2018-03-24T13:09:25.569Z,43.70
2018-03-24T13:10:34.036Z,42.80
2018-03-24T13:11:40.770Z,43.40
2018-03-24T13:12:45.758Z,43.30
2018-03-24T13:13:53.207Z,44.10
2018-03-24T13:15:13.230Z,43.30
2018-03-24T13:16:27.505Z,43.30
2018-03-24T13:17:33.433Z,45.30
2018-03-24T13:18:38.398Z,44.40
2018-03-24T13:19:44.770Z,44.60
2018-03-24T13:20:51.027Z,44.50
2018-03-24T13:21:56.010Z,44.40
2018-03-24T13:23:01.978Z,43.70
2018-03-24T13:24:07.712Z,44.80
2018-03-24T13:25:13.372Z,45.80
2018-03-24T13:26:20.480Z,45.80
2018-03-24T13:27:25.646Z,45.80
2018-03-24T13:28:30.717Z,45.40
2018-03-24T13:29:36.337Z,42.70
2018-03-24T13:30:41.896Z,42.90
2018-03-24T13:31:49.932Z,42.40
2018-03-24T13:32:55.960Z,41.90
2018-03-24T13:34:02.965Z,41.90
2018-03-24T13:35:10.496Z,40.60
2018-03-24T13:36:19.317Z,40.80
2018-03-24T13:37:24.279Z,40.90
2018-03-24T13:38:30.790Z,40.60
2018-03-24T13:39:35.791Z,40.50
2018-03-24T13:40:40.719Z,40.10
2018-03-24T13:41:45.840Z,39.30
2018-03-24T13:42:51.933Z,38.90
2018-03-24T13:43:57.399Z,38.30
2018-03-24T13:45:03.143Z,39.80
2018-03-24T13:46:08.322Z,39.70
2018-03-24T13:47:13.300Z,39.50
2018-03-24T13:48:18.456Z,40.50
2018-03-24T13:49:23.651Z,41.20
2018-03-24T13:50:30.077Z,41.70
2018-03-24T13:51:36.056Z,40.80
2018-03-24T13:52:41.628Z,40.80
2018-03-24T13:53:46.850Z,40.50
2018-03-24T13:54:52.093Z,40.80
2018-03-24T13:55:57.146Z,41.20
2018-03-24T13:57:02.454Z,41.90
2018-03-24T13:58:07.740Z,41.90
2018-03-24T13:59:13.124Z,42.20
2018-03-24T14:00:18.416Z,43.20
2018-03-24T14:01:23.638Z,42.50
2018-03-24T14:02:29.639Z,44.20
2018-03-24T14:03:34.687Z,43.10
2018-03-24T14:04:40.952Z,43.60
2018-03-24T14:05:46.352Z,43.50
2018-03-24T14:06:51.454Z,43.20
2018-03-24T14:07:56.602Z,43.80
2018-03-24T14:09:01.738Z,44.50
2018-03-24T14:10:06.948Z,45.50